Airfield :
LOGIN :

Register | Disclaimer

   EN    FR    IT 

 










Legend :    VFR   Marginal VFR   IFR   Intensive IFR   Very Intensive IFR
Visi :
Ceiling :
>= 8 km
>= 3000ft
5 to 8 km
1000 to 3000 ft
1500m to 5 km
500 to 1000 ft
800 to 1500m
200 to 500 ft
< 800m
< 200 ft
Symbols :   Thunderstorms  Fog  Heavy snow  Heavy precipitations  Wind > 20 kt
SIGMETs :     Misc.  Thunderstorms  Icing  Turbulence  Mountain Waves  Volcanic Ashes






- Airport Elevation : 427 ft
- IATA code : CIA


LIRA - Roma Ciampino

CURRENT METAR :
  • 072050Z 13004KT 9999 SCT030 11/10 Q1021

EXPIRED METARs :
  • 072020Z 13005KT 9999 FEW030 11/10 Q1021
  • 071950Z 14004KT 9999 SCT030 12/10 Q1021
  • 071920Z 16002KT 9999 FEW030 SCT070 12/11 Q1021
  • 071850Z 15003KT 9999 FEW070 12/11 Q1021
  • 071820Z 13004KT 9999 SCT030 12/11 Q1021

TAF TAF LIRA
Valid from the 07 at 18:00 until the 08 at 18:00 UTC


071700Z 0718/0818 VRB05KT 9999 SCT040



MET'MAP, your aeronautical weather chart ! - Copyright ORBIFLY December 2007 - Disclaimer

ORBIFLY MET'MAP TEAM :

Programming & Development : Alexandra Zaïnal
Concept & original design : Baudouin d'Aumeries
Assistance for programming : Marc-Olivier Méhu
Technical & hardware support : Manuel Goepfert

Contact : metmap@orbifly.com




SOURCES & CREDITS :

   NOAA